Time;durP1;ratioP1;P1;durP2;ratioP2;P2;SDS_P1;SDS_P2;PMS_P1;PMS_P2;Temp;Humidity;BMP_temperature;BMP_pressure;BME280_temperature;BME280_humidity;BME280_pressure;Samples;Min_cycle;Max_cycle;Signal;HPM_P1;HPM_P2
2021/08/30 00:00:14;;;;;;;;;;;14.50;99.90;;;;;;5068676;28;19959;-67
2021/08/30 00:02:39;;;;;;;;;;;14.50;99.90;;;;;;5069020;28;19912;-68
2021/08/30 00:05:06;;;;;;;;;;;14.40;99.90;;;;;;5068619;28;19915;-67
2021/08/30 00:07:31;;;;;;;;;;;14.40;99.90;;;;;;5069692;28;20451;-68
2021/08/30 00:09:57;;;;;;;;;;;14.40;99.90;;;;;;5072795;28;19908;-67
2021/08/30 00:12:22;;;;;;;;;;;14.40;99.90;;;;;;5072710;28;19908;-68
2021/08/30 00:14:48;;;;;;;;;;;14.40;99.90;;;;;;5072736;28;19908;-70
2021/08/30 00:17:13;;;;;;;;;;;14.40;99.90;;;;;;5072563;28;19919;-69
2021/08/30 00:19:39;;;;;;;;;;;14.40;99.90;;;;;;5072484;28;19999;-67
2021/08/30 00:22:04;;;;;;;;;;;14.50;99.90;;;;;;5072475;28;19954;-68
2021/08/30 00:24:30;;;;;;;;;;;14.50;99.90;;;;;;5072533;28;20334;-68
2021/08/30 00:26:56;;;;;;;;;;;14.50;99.90;;;;;;5072153;28;19916;-67
2021/08/30 00:29:27;;;;;;;;;;;14.50;99.90;;;;;;5054230;28;19958;-68
2021/08/30 00:31:56;;;;;;;;;;;14.50;99.90;;;;;;5072382;28;19908;-67
2021/08/30 00:34:22;;;;;;;;;;;14.50;99.90;;;;;;5072351;28;19999;-68
2021/08/30 00:36:47;;;;;;;;;;;14.50;99.90;;;;;;5072335;28;19994;-67
2021/08/30 00:39:18;;;;;;;;;;;14.50;99.90;;;;;;5071918;28;19913;-67
2021/08/30 00:41:44;;;;;;;;;;;14.50;99.90;;;;;;5072121;28;19908;-67
2021/08/30 00:44:10;;;;;;;;;;;14.50;99.90;;;;;;5054116;28;19950;-67
2021/08/30 00:46:35;;;;;;;;;;;14.50;99.90;;;;;;5071948;28;19916;-67
2021/08/30 00:49:01;;;;;;;;;;;14.50;99.90;;;;;;5072189;28;20314;-67
2021/08/30 00:51:26;;;;;;;;;;;14.40;99.90;;;;;;5072140;28;19909;-67
2021/08/30 00:53:52;;;;;;;;;;;14.40;99.90;;;;;;5071843;28;19962;-67
2021/08/30 00:56:18;;;;;;;;;;;14.30;99.90;;;;;;5071805;28;19908;-67
2021/08/30 00:58:44;;;;;;;;;;;14.40;99.90;;;;;;5071854;28;19998;-67
2021/08/30 01:01:10;;;;;;;;;;;14.30;99.90;;;;;;5071622;28;20019;-67
2021/08/30 01:03:36;;;;;;;;;;;14.40;99.90;;;;;;5071699;28;20435;-67
2021/08/30 01:06:06;;;;;;;;;;;14.40;99.90;;;;;;5071614;28;19912;-68
2021/08/30 01:08:35;;;;;;;;;;;14.40;99.90;;;;;;5071693;28;20362;-67
2021/08/30 01:11:06;;;;;;;;;;;14.30;99.90;;;;;;5071611;28;19974;-67
2021/08/30 01:13:34;;;;;;;;;;;14.30;99.90;;;;;;5071606;28;19952;-67
2021/08/30 01:16:01;;;;;;;;;;;14.30;99.90;;;;;;5071556;28;19908;-67
2021/08/30 01:18:30;;;;;;;;;;;14.30;99.90;;;;;;5071269;28;20440;-66
2021/08/30 01:21:02;;;;;;;;;;;14.20;99.90;;;;;;5071440;28;19945;-67
2021/08/30 01:23:29;;;;;;;;;;;14.20;99.90;;;;;;5071241;28;19920;-67
2021/08/30 01:25:57;;;;;;;;;;;14.20;99.90;;;;;;5071125;28;19908;-67
2021/08/30 01:28:24;;;;;;;;;;;14.10;99.90;;;;;;5070967;28;19908;-68
2021/08/30 01:30:51;;;;;;;;;;;14.10;99.90;;;;;;5071252;28;19908;-67
2021/08/30 01:33:17;;;;;;;;;;;14.20;99.90;;;;;;5071089;28;19904;-68
2021/08/30 01:35:43;;;;;;;;;;;14.20;99.90;;;;;;5071181;28;19904;-68
2021/08/30 01:38:09;;;;;;;;;;;14.20;99.90;;;;;;5071247;28;19912;-67
2021/08/30 01:40:36;;;;;;;;;;;14.30;99.90;;;;;;5071315;28;19908;-68
2021/08/30 01:43:02;;;;;;;;;;;14.30;99.90;;;;;;5070952;28;20364;-68
2021/08/30 01:45:29;;;;;;;;;;;14.30;99.90;;;;;;5071062;28;19915;-68
2021/08/30 01:47:56;;;;;;;;;;;14.30;99.90;;;;;;5070791;28;19923;-68
2021/08/30 01:50:22;;;;;;;;;;;14.20;99.90;;;;;;5070885;28;19995;-68
2021/08/30 01:52:49;;;;;;;;;;;14.20;99.90;;;;;;5070992;28;20369;-68
2021/08/30 01:55:30;;;;;;;;;;;14.20;99.90;;;;;;5070595;28;20289;-68
2021/08/30 02:00:45;;;;;;;;;;;14.20;99.90;;;;;;5070925;28;19935;-68
2021/08/30 02:03:15;;;;;;;;;;;14.20;99.90;;;;;;5052643;28;20006;-68
2021/08/30 02:05:41;;;;;;;;;;;14.10;99.90;;;;;;5070506;28;19954;-69
2021/08/30 02:08:07;;;;;;;;;;;14.10;99.90;;;;;;5070607;28;19928;-68
2021/08/30 02:10:32;;;;;;;;;;;14.10;99.90;;;;;;5070502;28;19904;-68
2021/08/30 02:12:58;;;;;;;;;;;14.10;99.90;;;;;;5052651;28;19912;-69
2021/08/30 02:15:23;;;;;;;;;;;14.20;99.90;;;;;;5070410;28;19905;-68
2021/08/30 02:17:50;;;;;;;;;;;14.20;99.90;;;;;;5070447;28;19919;-68
2021/08/30 02:20:18;;;;;;;;;;;14.20;99.90;;;;;;5070333;28;19967;-68
2021/08/30 02:22:44;;;;;;;;;;;14.30;99.90;;;;;;5070143;28;19920;-68
2021/08/30 02:25:15;;;;;;;;;;;14.30;99.90;;;;;;5070159;28;19962;-69
2021/08/30 02:27:43;;;;;;;;;;;14.30;99.90;;;;;;5070180;28;20864;-68
2021/08/30 02:30:14;;;;;;;;;;;14.40;99.90;;;;;;5069577;28;19954;-68
2021/08/30 02:32:41;;;;;;;;;;;14.40;99.90;;;;;;5070175;28;19914;-69
2021/08/30 02:35:09;;;;;;;;;;;14.40;99.90;;;;;;5069898;28;19915;-68
2021/08/30 02:37:36;;;;;;;;;;;14.40;99.90;;;;;;5069921;28;19915;-68
2021/08/30 02:40:02;;;;;;;;;;;14.40;99.90;;;;;;5070050;28;20004;-69
2021/08/30 02:42:32;;;;;;;;;;;14.40;99.90;;;;;;5070129;28;19967;-69
2021/08/30 02:44:59;;;;;;;;;;;14.40;99.90;;;;;;5069708;28;19909;-67
2021/08/30 02:47:25;;;;;;;;;;;14.40;99.90;;;;;;5069861;28;19939;-68
2021/08/30 02:49:51;;;;;;;;;;;14.40;99.90;;;;;;5069746;28;20273;-69
2021/08/30 02:52:18;;;;;;;;;;;14.30;99.90;;;;;;5069922;28;19916;-70
2021/08/30 02:54:44;;;;;;;;;;;14.30;99.90;;;;;;5051795;28;20292;-69
2021/08/30 02:57:10;;;;;;;;;;;14.30;99.90;;;;;;5069438;28;20403;-68
2021/08/30 02:59:35;;;;;;;;;;;14.30;99.90;;;;;;5069505;28;19908;-68
2021/08/30 03:02:01;;;;;;;;;;;14.30;99.90;;;;;;5069517;28;19908;-68
2021/08/30 03:04:27;;;;;;;;;;;14.30;99.90;;;;;;5069394;28;19912;-68
2021/08/30 03:06:54;;;;;;;;;;;14.30;99.90;;;;;;5069360;28;19916;-68
2021/08/30 03:09:19;;;;;;;;;;;14.30;99.90;;;;;;5069288;28;19912;-68
2021/08/30 03:11:47;;;;;;;;;;;14.30;99.90;;;;;;5069362;28;19911;-68
2021/08/30 03:14:15;;;;;;;;;;;14.40;99.90;;;;;;5051369;28;19969;-68
2021/08/30 03:16:41;;;;;;;;;;;14.40;99.90;;;;;;5069318;28;19908;-67
2021/08/30 03:19:07;;;;;;;;;;;14.30;99.90;;;;;;5069091;28;19909;-68
2021/08/30 03:21:33;;;;;;;;;;;14.40;99.90;;;;;;5068424;28;19912;-67
2021/08/30 03:23:59;;;;;;;;;;;14.40;99.90;;;;;;5050852;28;19915;-68
2021/08/30 03:26:26;;;;;;;;;;;14.40;99.90;;;;;;5068961;28;19920;-68
2021/08/30 03:28:52;;;;;;;;;;;14.40;99.90;;;;;;5068893;28;19908;-69
2021/08/30 03:31:18;;;;;;;;;;;14.40;99.90;;;;;;5068777;28;19995;-69
2021/08/30 03:33:43;;;;;;;;;;;14.40;99.90;;;;;;5069000;28;20430;-69
2021/08/30 03:36:10;;;;;;;;;;;14.40;99.90;;;;;;5068958;28;19938;-69
2021/08/30 03:38:36;;;;;;;;;;;14.40;99.90;;;;;;5068087;28;19908;-69
2021/08/30 03:41:02;;;;;;;;;;;14.30;99.90;;;;;;5067817;28;20003;-67
2021/08/30 03:43:28;;;;;;;;;;;14.30;99.90;;;;;;5068291;28;20426;-68
2021/08/30 03:45:54;;;;;;;;;;;14.30;99.90;;;;;;5068589;28;19939;-67
2021/08/30 03:48:23;;;;;;;;;;;14.30;99.90;;;;;;5068193;28;19917;-69
2021/08/30 03:50:48;;;;;;;;;;;14.30;99.90;;;;;;5068152;28;19909;-69
2021/08/30 03:53:14;;;;;;;;;;;14.20;99.90;;;;;;5067633;28;19919;-69
2021/08/30 03:55:40;;;;;;;;;;;14.20;99.90;;;;;;5067795;28;19947;-68
2021/08/30 03:58:09;;;;;;;;;;;14.30;99.90;;;;;;5068401;28;19908;-68
2021/08/30 04:00:34;;;;;;;;;;;14.30;99.90;;;;;;5067949;28;19909;-69
2021/08/30 04:03:01;;;;;;;;;;;14.30;99.90;;;;;;5068446;28;19924;-68
2021/08/30 04:05:29;;;;;;;;;;;14.30;99.90;;;;;;5068482;28;19915;-68
2021/08/30 04:07:56;;;;;;;;;;;14.30;99.90;;;;;;5068044;28;20288;-68
2021/08/30 04:10:21;;;;;;;;;;;14.30;99.90;;;;;;5067640;28;20011;-68
2021/08/30 04:12:47;;;;;;;;;;;14.30;99.90;;;;;;5049617;28;20416;-68
2021/08/30 04:15:13;;;;;;;;;;;14.20;99.90;;;;;;5067256;28;19913;-68
2021/08/30 04:17:39;;;;;;;;;;;14.30;99.90;;;;;;5067711;28;19953;-68
2021/08/30 04:20:04;;;;;;;;;;;14.30;99.90;;;;;;5068458;28;19998;-68
2021/08/30 04:22:34;;;;;;;;;;;14.40;99.90;;;;;;5051058;28;19947;-69
2021/08/30 04:25:00;;;;;;;;;;;14.40;99.90;;;;;;5070404;28;20370;-70
2021/08/30 04:27:26;;;;;;;;;;;14.40;99.90;;;;;;5102909;28;19915;-69
2021/08/30 04:29:51;;;;;;;;;;;14.40;99.90;;;;;;5105955;28;19908;-69
2021/08/30 04:32:17;;;;;;;;;;;14.40;99.90;;;;;;5106067;28;19933;-70
2021/08/30 04:34:42;;;;;;;;;;;14.40;99.90;;;;;;5091792;28;19912;-70
2021/08/30 04:37:08;;;;;;;;;;;14.40;99.90;;;;;;5087176;28;20818;-69
2021/08/30 04:39:33;;;;;;;;;;;14.40;99.90;;;;;;5104774;28;19952;-69
2021/08/30 04:42:02;;;;;;;;;;;14.40;99.90;;;;;;5089495;28;19912;-70
2021/08/30 04:44:27;;;;;;;;;;;14.50;99.90;;;;;;5067047;28;19904;-69
2021/08/30 04:46:53;;;;;;;;;;;14.50;99.90;;;;;;5085449;28;19970;-70
2021/08/30 04:49:18;;;;;;;;;;;14.50;99.90;;;;;;5104857;28;20258;-69
2021/08/30 04:51:44;;;;;;;;;;;14.50;99.90;;;;;;5106126;28;19915;-70
2021/08/30 04:54:09;;;;;;;;;;;14.50;99.90;;;;;;5089525;28;19957;-70
2021/08/30 04:56:35;;;;;;;;;;;14.60;99.90;;;;;;5109662;28;20006;-70
2021/08/30 04:59:00;;;;;;;;;;;14.60;99.90;;;;;;5108974;28;20387;-70
2021/08/30 05:01:26;;;;;;;;;;;14.60;99.90;;;;;;5109785;28;19998;-70
2021/08/30 05:03:52;;;;;;;;;;;14.70;99.90;;;;;;5109413;28;19908;-69
2021/08/30 05:06:18;;;;;;;;;;;14.70;99.90;;;;;;5109214;28;19963;-70
2021/08/30 05:08:43;;;;;;;;;;;14.70;99.90;;;;;;5107965;28;19950;-70
2021/08/30 05:11:09;;;;;;;;;;;14.70;99.90;;;;;;5109266;28;20501;-70
2021/08/30 05:13:34;;;;;;;;;;;14.70;99.90;;;;;;5109200;28;19968;-69
2021/08/30 05:16:00;;;;;;;;;;;14.80;99.90;;;;;;5085002;28;20024;-69
2021/08/30 05:18:25;;;;;;;;;;;14.80;99.90;;;;;;5088947;28;20604;-69
2021/08/30 05:20:52;;;;;;;;;;;14.80;99.90;;;;;;5089019;28;19996;-69
2021/08/30 05:23:18;;;;;;;;;;;14.80;99.90;;;;;;5104674;28;19920;-69
2021/08/30 05:25:43;;;;;;;;;;;14.90;99.90;;;;;;5108927;28;20254;-69
2021/08/30 05:28:09;;;;;;;;;;;14.90;99.90;;;;;;5108800;28;19961;-69
2021/08/30 05:30:35;;;;;;;;;;;15.00;99.90;;;;;;5109118;28;19908;-69
2021/08/30 05:33:01;;;;;;;;;;;15.00;99.90;;;;;;5109134;28;19914;-70
2021/08/30 05:35:26;;;;;;;;;;;15.00;99.90;;;;;;5109169;28;20640;-69
2021/08/30 05:37:52;;;;;;;;;;;15.10;99.90;;;;;;5089473;28;19914;-68
2021/08/30 05:40:17;;;;;;;;;;;15.10;99.90;;;;;;5089848;28;19930;-69
2021/08/30 05:42:43;;;;;;;;;;;15.20;99.90;;;;;;5090640;28;19908;-69
2021/08/30 05:45:09;;;;;;;;;;;15.30;99.90;;;;;;5088121;28;19908;-70
2021/08/30 05:47:34;;;;;;;;;;;15.40;99.90;;;;;;5088008;28;20112;-69
2021/08/30 05:50:00;;;;;;;;;;;15.40;99.90;;;;;;5088151;28;19907;-69
2021/08/30 05:52:26;;;;;;;;;;;15.40;99.90;;;;;;5092155;28;20348;-69
2021/08/30 05:54:51;;;;;;;;;;;15.50;99.90;;;;;;5107814;28;19908;-70
2021/08/30 05:57:17;;;;;;;;;;;15.50;99.90;;;;;;5108032;28;19911;-69
2021/08/30 05:59:42;;;;;;;;;;;15.60;99.90;;;;;;5107861;28;20006;-69
2021/08/30 06:02:10;;;;;;;;;;;15.60;99.90;;;;;;5107552;28;19908;-68
2021/08/30 06:04:36;;;;;;;;;;;15.70;99.90;;;;;;5106404;28;19951;-71
2021/08/30 06:07:01;;;;;;;;;;;15.70;99.90;;;;;;5086125;28;20015;-70
2021/08/30 06:09:29;;;;;;;;;;;15.70;99.90;;;;;;5107359;28;19908;-69
2021/08/30 06:11:54;;;;;;;;;;;15.70;99.90;;;;;;5093701;28;20403;-69
2021/08/30 06:14:20;;;;;;;;;;;15.80;99.90;;;;;;5090578;28;20007;-69
2021/08/30 06:16:45;;;;;;;;;;;15.80;99.90;;;;;;5090696;28;19994;-69
2021/08/30 06:19:11;;;;;;;;;;;15.80;99.90;;;;;;5090291;28;19951;-69
2021/08/30 06:21:36;;;;;;;;;;;15.80;99.90;;;;;;5090837;28;19914;-69
2021/08/30 06:24:02;;;;;;;;;;;15.90;99.90;;;;;;5090368;28;19927;-70
2021/08/30 06:26:28;;;;;;;;;;;16.00;99.90;;;;;;5090674;28;19919;-69
2021/08/30 06:28:53;;;;;;;;;;;16.20;99.90;;;;;;5090364;28;20390;-70
2021/08/30 06:31:19;;;;;;;;;;;16.40;99.90;;;;;;5090397;28;19974;-70
2021/08/30 06:33:44;;;;;;;;;;;17.00;99.90;;;;;;5090263;28;20399;-70
2021/08/30 06:36:11;;;;;;;;;;;17.70;99.90;;;;;;5089987;28;19927;-70
2021/08/30 06:38:37;;;;;;;;;;;18.30;99.90;;;;;;5090240;28;19961;-71
2021/08/30 06:41:02;;;;;;;;;;;18.50;99.90;;;;;;5090060;28;19908;-69
2021/08/30 06:43:28;;;;;;;;;;;18.50;99.90;;;;;;5090204;28;19908;-67
2021/08/30 06:45:53;;;;;;;;;;;18.40;99.90;;;;;;5090014;28;19986;-68
2021/08/30 06:48:19;;;;;;;;;;;18.30;99.90;;;;;;5090158;28;20474;-68
2021/08/30 06:50:44;;;;;;;;;;;18.40;99.90;;;;;;5089949;28;19908;-68
2021/08/30 06:53:14;;;;;;;;;;;18.40;99.90;;;;;;5071624;28;19932;-68
2021/08/30 06:55:39;;;;;;;;;;;18.50;99.00;;;;;;5090086;28;19911;-68
2021/08/30 06:58:05;;;;;;;;;;;18.50;98.50;;;;;;5089921;28;20364;-68
2021/08/30 07:00:30;;;;;;;;;;;18.60;99.30;;;;;;5071585;28;20376;-67
2021/08/30 07:02:56;;;;;;;;;;;18.60;98.80;;;;;;5089760;28;19908;-68
2021/08/30 07:05:21;;;;;;;;;;;18.80;98.60;;;;;;5089795;28;19969;-67
2021/08/30 07:07:47;;;;;;;;;;;18.90;97.90;;;;;;5089533;28;20308;-68
2021/08/30 07:10:13;;;;;;;;;;;19.10;96.40;;;;;;5089673;28;20007;-68
2021/08/30 07:12:38;;;;;;;;;;;19.20;97.00;;;;;;5089750;28;19914;-68
2021/08/30 07:15:04;;;;;;;;;;;19.40;96.60;;;;;;5089542;28;19951;-68
2021/08/30 07:17:29;;;;;;;;;;;20.30;94.30;;;;;;5089258;28;19915;-69
2021/08/30 07:19:55;;;;;;;;;;;21.40;92.70;;;;;;5071016;28;20623;-69
2021/08/30 07:22:20;;;;;;;;;;;22.30;87.70;;;;;;5089214;28;19949;-69
2021/08/30 07:24:46;;;;;;;;;;;22.10;85.20;;;;;;5089372;28;20483;-68
2021/08/30 07:27:12;;;;;;;;;;;21.70;86.60;;;;;;5089243;28;19916;-68
2021/08/30 07:29:37;;;;;;;;;;;21.30;86.40;;;;;;5089215;28;19927;-67
2021/08/30 07:32:03;;;;;;;;;;;21.00;87.50;;;;;;5089294;28;19904;-68
2021/08/30 07:34:29;;;;;;;;;;;21.20;90.00;;;;;;5089151;28;19912;-68
2021/08/30 07:36:54;;;;;;;;;;;22.20;87.40;;;;;;5088794;28;19904;-69
2021/08/30 07:39:20;;;;;;;;;;;23.50;81.60;;;;;;5088302;28;20005;-68
2021/08/30 07:41:46;;;;;;;;;;;24.40;75.90;;;;;;5088556;28;20433;-68
2021/08/30 07:44:12;;;;;;;;;;;24.80;72.00;;;;;;5087982;28;19950;-69
2021/08/30 07:46:38;;;;;;;;;;;24.50;71.80;;;;;;5088107;28;19921;-68
2021/08/30 07:49:03;;;;;;;;;;;23.90;72.70;;;;;;5087866;28;19936;-68
2021/08/30 07:51:29;;;;;;;;;;;23.20;75.20;;;;;;5088076;28;19946;-69
2021/08/30 07:53:57;;;;;;;;;;;22.30;78.00;;;;;;5088026;28;19915;-67
2021/08/30 07:56:22;;;;;;;;;;;21.80;81.50;;;;;;5088844;28;19994;-69
2021/08/30 07:58:48;;;;;;;;;;;21.60;83.20;;;;;;5089045;28;19998;-68
2021/08/30 08:01:13;;;;;;;;;;;21.50;83.80;;;;;;5088710;28;19912;-68
2021/08/30 08:03:39;;;;;;;;;;;21.50;82.50;;;;;;5088972;28;19977;-68
2021/08/30 08:06:04;;;;;;;;;;;21.80;79.40;;;;;;5088440;28;19911;-68
2021/08/30 08:08:30;;;;;;;;;;;22.30;79.70;;;;;;5088937;28;19915;-68
2021/08/30 08:10:56;;;;;;;;;;;22.70;78.60;;;;;;5088806;28;19908;-68
2021/08/30 08:13:23;;;;;;;;;;;22.80;76.60;;;;;;5088976;28;20394;-67
2021/08/30 08:15:49;;;;;;;;;;;22.80;77.20;;;;;;5088642;28;19960;-68
2021/08/30 08:18:15;;;;;;;;;;;22.40;77.10;;;;;;5088702;28;19951;-68
2021/08/30 08:20:41;;;;;;;;;;;21.90;78.50;;;;;;5070584;28;19939;-68
2021/08/30 08:23:06;;;;;;;;;;;21.80;81.30;;;;;;5088457;28;20364;-68
2021/08/30 08:25:32;;;;;;;;;;;21.70;81.10;;;;;;5088680;28;19908;-69
2021/08/30 08:28:02;;;;;;;;;;;21.80;80.40;;;;;;5070492;28;19916;-68
2021/08/30 08:30:28;;;;;;;;;;;21.80;79.80;;;;;;5092742;28;19946;-67
2021/08/30 08:32:54;;;;;;;;;;;21.80;77.50;;;;;;5092693;28;19985;-69
2021/08/30 08:35:19;;;;;;;;;;;21.90;79.20;;;;;;5074315;28;19915;-68
2021/08/30 08:37:45;;;;;;;;;;;22.40;77.30;;;;;;5092678;28;19912;-68
2021/08/30 08:40:12;;;;;;;;;;;22.50;77.10;;;;;;5092605;28;20316;-68
2021/08/30 08:42:39;;;;;;;;;;;22.60;75.70;;;;;;5092489;28;20379;-69
2021/08/30 08:45:06;;;;;;;;;;;23.00;77.10;;;;;;5092683;28;19995;-68
2021/08/30 08:47:31;;;;;;;;;;;23.80;73.70;;;;;;5092487;28;19916;-68
2021/08/30 08:49:57;;;;;;;;;;;24.40;71.50;;;;;;5092313;28;20265;-69
2021/08/30 08:52:23;;;;;;;;;;;25.00;68.20;;;;;;5092257;28;19908;-68
2021/08/30 08:54:49;;;;;;;;;;;24.80;65.60;;;;;;5092217;28;20037;-69
2021/08/30 08:57:14;;;;;;;;;;;24.40;67.60;;;;;;5092104;28;19904;-68
2021/08/30 08:59:41;;;;;;;;;;;24.10;67.60;;;;;;5092300;28;19912;-68
2021/08/30 09:02:07;;;;;;;;;;;23.80;69.00;;;;;;5092225;28;20376;-68
2021/08/30 09:04:33;;;;;;;;;;;23.90;68.20;;;;;;5091901;28;19904;-69
2021/08/30 09:07:09;;;;;;;;;;;23.80;67.20;;;;;;5091917;28;19912;-69
2021/08/30 09:09:35;;;;;;;;;;;23.50;67.10;;;;;;5091713;28;19915;-68
2021/08/30 09:12:01;;;;;;;;;;;23.00;70.60;;;;;;5091763;28;19953;-68
2021/08/30 09:14:26;;;;;;;;;;;22.50;70.70;;;;;;5091542;28;19980;-69
2021/08/30 09:17:06;;;;;;;;;;;22.50;72.50;;;;;;5091763;28;19914;-68
2021/08/30 09:19:32;;;;;;;;;;;23.10;70.10;;;;;;5091702;28;20337;-68
2021/08/30 09:21:57;;;;;;;;;;;23.90;67.90;;;;;;5091995;28;19904;-69
2021/08/30 09:24:24;;;;;;;;;;;24.80;64.40;;;;;;5091399;28;19916;-69
2021/08/30 09:26:52;;;;;;;;;;;25.20;61.60;;;;;;5091673;28;19980;-69
2021/08/30 09:29:25;;;;;;;;;;;25.50;62.90;;;;;;5091303;28;19931;-70
2021/08/30 09:31:58;;;;;;;;;;;26.00;60.80;;;;;;5091602;28;20557;-68
2021/08/30 09:34:27;;;;;;;;;;;25.80;60.50;;;;;;5091468;28;19953;-68
2021/08/30 09:36:53;;;;;;;;;;;25.40;60.20;;;;;;5091227;28;19912;-69
2021/08/30 09:39:19;;;;;;;;;;;25.50;61.60;;;;;;5091154;28;19908;-67
2021/08/30 09:41:44;;;;;;;;;;;25.60;58.80;;;;;;5091405;28;19904;-68
2021/08/30 09:44:10;;;;;;;;;;;25.20;59.40;;;;;;5073471;28;19926;-68
2021/08/30 09:46:35;;;;;;;;;;;24.80;60.20;;;;;;5091268;28;19912;-68
2021/08/30 09:49:08;;;;;;;;;;;24.70;61.10;;;;;;5091481;28;19915;-68
2021/08/30 09:51:37;;;;;;;;;;;24.90;60.20;;;;;;5091119;28;20347;-68
2021/08/30 09:54:03;;;;;;;;;;;25.00;60.30;;;;;;5090917;28;20345;-68
2021/08/30 09:56:30;;;;;;;;;;;25.30;59.20;;;;;;5090982;28;20011;-67
2021/08/30 09:58:56;;;;;;;;;;;26.00;55.80;;;;;;5090921;28;20023;-69
2021/08/30 10:01:23;;;;;;;;;;;26.80;54.50;;;;;;5091019;28;20226;-69
2021/08/30 10:03:49;;;;;;;;;;;27.60;52.00;;;;;;5090865;28;19916;-69
2021/08/30 10:06:14;;;;;;;;;;;27.80;50.40;;;;;;5090604;28;19916;-69
2021/08/30 10:08:41;;;;;;;;;;;27.70;49.10;;;;;;5090822;28;20026;-70
2021/08/30 10:11:06;;;;;;;;;;;27.80;50.00;;;;;;5090629;28;19925;-69
2021/08/30 10:13:32;;;;;;;;;;;28.20;48.30;;;;;;5090800;28;19908;-69
2021/08/30 10:15:58;;;;;;;;;;;28.50;48.90;;;;;;5090665;28;19904;-69
2021/08/30 10:18:24;;;;;;;;;;;28.50;44.00;;;;;;5090640;28;19914;-69
2021/08/30 10:20:50;;;;;;;;;;;27.90;45.20;;;;;;5090701;28;19908;-69
2021/08/30 10:23:16;;;;;;;;;;;27.50;45.70;;;;;;5090386;28;19945;-68
2021/08/30 10:25:42;;;;;;;;;;;26.80;46.60;;;;;;5090444;28;19923;-69
2021/08/30 10:28:09;;;;;;;;;;;26.30;46.90;;;;;;5090410;28;19923;-68
2021/08/30 10:30:36;;;;;;;;;;;25.90;49.90;;;;;;5090525;28;19908;-68
2021/08/30 10:33:04;;;;;;;;;;;25.10;50.10;;;;;;5090420;28;19908;-68
2021/08/30 10:35:31;;;;;;;;;;;24.50;48.50;;;;;;5090343;28;19987;-68
2021/08/30 10:38:00;;;;;;;;;;;24.20;48.60;;;;;;5090272;28;19904;-67
2021/08/30 10:40:30;;;;;;;;;;;23.80;50.10;;;;;;5090101;28;20426;-68
2021/08/30 10:43:00;;;;;;;;;;;23.60;51.50;;;;;;5090118;28;19995;-68
2021/08/30 10:45:30;;;;;;;;;;;23.40;52.20;;;;;;5090121;28;19904;-68
2021/08/30 10:48:00;;;;;;;;;;;23.30;53.30;;;;;;5089921;28;19922;-69
2021/08/30 10:50:26;;;;;;;;;;;23.00;53.40;;;;;;5089986;28;19904;-68
2021/08/30 10:53:01;;;;;;;;;;;22.80;54.00;;;;;;5071209;28;19915;-68
2021/08/30 10:55:34;;;;;;;;;;;22.70;55.00;;;;;;5071614;28;19950;-68
2021/08/30 10:58:08;;;;;;;;;;;22.50;56.50;;;;;;5090021;28;20042;-68
2021/08/30 11:00:34;;;;;;;;;;;22.70;57.10;;;;;;5089817;28;20471;-68
2021/08/30 11:03:00;;;;;;;;;;;22.80;56.70;;;;;;5089516;28;19999;-68
2021/08/30 11:05:27;;;;;;;;;;;22.70;56.50;;;;;;5089611;28;20380;-68
2021/08/30 11:07:53;;;;;;;;;;;22.60;58.00;;;;;;5089606;28;19919;-68
2021/08/30 11:10:23;;;;;;;;;;;22.70;58.90;;;;;;5089647;28;19908;-68
2021/08/30 11:12:49;;;;;;;;;;;22.90;58.40;;;;;;5089668;28;19908;-68
2021/08/30 11:15:14;;;;;;;;;;;23.00;57.60;;;;;;5089420;28;19949;-68
2021/08/30 11:17:40;;;;;;;;;;;23.20;56.90;;;;;;5089631;28;19956;-68
2021/08/30 11:20:06;;;;;;;;;;;23.30;55.10;;;;;;5089503;28;19904;-67
2021/08/30 11:22:32;;;;;;;;;;;23.30;55.10;;;;;;5089164;28;19916;-68
2021/08/30 11:25:00;;;;;;;;;;;23.20;53.70;;;;;;5088612;28;19919;-67
2021/08/30 11:27:29;;;;;;;;;;;23.10;53.40;;;;;;5089276;28;20006;-68
2021/08/30 11:29:55;;;;;;;;;;;22.90;55.00;;;;;;5089416;28;20414;-67
2021/08/30 11:32:22;;;;;;;;;;;22.90;54.00;;;;;;5071224;28;20023;-68
2021/08/30 11:34:48;;;;;;;;;;;23.00;55.80;;;;;;5089282;28;19908;-68
2021/08/30 11:37:15;;;;;;;;;;;23.10;55.40;;;;;;5089070;28;19908;-68
2021/08/30 11:39:41;;;;;;;;;;;23.30;54.30;;;;;;5089051;28;19916;-68
2021/08/30 11:42:08;;;;;;;;;;;23.50;54.50;;;;;;5088507;28;19920;-67
2021/08/30 11:44:34;;;;;;;;;;;23.70;53.40;;;;;;5088032;28;20367;-67
2021/08/30 11:47:01;;;;;;;;;;;23.70;52.90;;;;;;5088033;28;20027;-67
2021/08/30 11:49:28;;;;;;;;;;;23.60;53.30;;;;;;5088385;28;20006;-67
2021/08/30 11:51:56;;;;;;;;;;;23.50;53.80;;;;;;5088309;28;19924;-67
2021/08/30 11:54:41;;;;;;;;;;;23.50;53.90;;;;;;5088267;28;19973;-67
2021/08/30 11:57:06;;;;;;;;;;;23.40;54.20;;;;;;5071335;28;19916;-68
2021/08/30 11:59:33;;;;;;;;;;;23.20;54.30;;;;;;5086527;28;20397;-66
2021/08/30 12:01:59;;;;;;;;;;;23.10;54.60;;;;;;5070429;28;19920;-67
2021/08/30 12:04:32;;;;;;;;;;;22.90;55.80;;;;;;5087216;28;20406;-67
2021/08/30 12:07:02;;;;;;;;;;;22.60;56.10;;;;;;5087764;28;20404;-67
2021/08/30 12:09:38;;;;;;;;;;;22.40;57.80;;;;;;5088177;28;19912;-67
2021/08/30 12:12:10;;;;;;;;;;;22.60;58.90;;;;;;5087981;28;19919;-67
2021/08/30 12:14:35;;;;;;;;;;;22.70;57.30;;;;;;5088048;28;19959;-68
2021/08/30 12:17:01;;;;;;;;;;;22.80;56.70;;;;;;5087898;28;19954;-66
2021/08/30 12:19:27;;;;;;;;;;;22.80;57.20;;;;;;5087681;28;20303;-67
2021/08/30 12:21:54;;;;;;;;;;;22.80;55.90;;;;;;5087861;28;19916;-67
2021/08/30 12:24:21;;;;;;;;;;;22.90;55.70;;;;;;5087785;28;20650;-67
2021/08/30 12:26:47;;;;;;;;;;;23.00;55.40;;;;;;5087844;28;20471;-67
2021/08/30 12:29:13;;;;;;;;;;;23.00;54.70;;;;;;5087671;28;19926;-67
2021/08/30 12:31:39;;;;;;;;;;;23.00;55.10;;;;;;5085465;28;19920;-68
2021/08/30 12:34:06;;;;;;;;;;;23.00;54.60;;;;;;5087792;28;19973;-67
2021/08/30 12:36:32;;;;;;;;;;;23.00;54.60;;;;;;5087844;28;19927;-67
2021/08/30 12:38:57;;;;;;;;;;;22.90;54.20;;;;;;5073021;28;20350;-67
2021/08/30 12:41:23;;;;;;;;;;;22.90;54.40;;;;;;5087770;28;20031;-67
2021/08/30 12:43:49;;;;;;;;;;;23.10;54.70;;;;;;5086537;28;20277;-68
2021/08/30 12:46:15;;;;;;;;;;;23.10;53.30;;;;;;5087788;28;19922;-67
2021/08/30 12:48:40;;;;;;;;;;;23.10;52.80;;;;;;5071232;28;19931;-67
2021/08/30 12:51:06;;;;;;;;;;;23.20;52.70;;;;;;5087493;28;20464;-68
2021/08/30 12:53:32;;;;;;;;;;;23.30;52.40;;;;;;5087365;28;19919;-67
2021/08/30 12:55:57;;;;;;;;;;;23.40;52.60;;;;;;5087624;28;19915;-67
2021/08/30 12:58:23;;;;;;;;;;;23.30;53.50;;;;;;5087557;28;20825;-67
2021/08/30 13:00:48;;;;;;;;;;;23.40;51.40;;;;;;5073873;28;19919;-66
2021/08/30 13:03:14;;;;;;;;;;;23.50;52.00;;;;;;5087511;28;20307;-67
2021/08/30 13:05:41;;;;;;;;;;;23.60;51.40;;;;;;5087473;28;19920;-67
2021/08/30 13:08:07;;;;;;;;;;;23.80;51.40;;;;;;5087431;28;19959;-67
2021/08/30 13:10:34;;;;;;;;;;;24.00;49.00;;;;;;5087455;28;20369;-67
2021/08/30 13:12:59;;;;;;;;;;;24.10;49.00;;;;;;5087350;28;20408;-67
2021/08/30 13:15:25;;;;;;;;;;;24.10;48.00;;;;;;5087950;28;19915;-67
2021/08/30 13:17:51;;;;;;;;;;;23.90;47.70;;;;;;5090869;28;20445;-67
2021/08/30 13:20:16;;;;;;;;;;;23.80;48.30;;;;;;5091012;28;19912;-67
2021/08/30 13:22:43;;;;;;;;;;;24.00;48.30;;;;;;5091501;28;20918;-66
2021/08/30 13:25:13;;;;;;;;;;;24.10;49.00;;;;;;5073001;28;20018;-67
2021/08/30 13:27:39;;;;;;;;;;;24.20;48.00;;;;;;5090847;28;20372;-67
2021/08/30 13:30:05;;;;;;;;;;;24.30;47.60;;;;;;5090955;28;19923;-67
2021/08/30 13:32:30;;;;;;;;;;;24.30;48.80;;;;;;5090862;28;20097;-67
2021/08/30 13:34:56;;;;;;;;;;;24.30;48.20;;;;;;5090734;28;20440;-67
2021/08/30 13:37:22;;;;;;;;;;;24.40;48.40;;;;;;5090805;28;20035;-67
2021/08/30 13:39:47;;;;;;;;;;;24.50;48.20;;;;;;5090353;28;20334;-67
2021/08/30 13:42:13;;;;;;;;;;;24.50;47.60;;;;;;5089874;28;19927;-67
2021/08/30 13:44:38;;;;;;;;;;;24.40;48.00;;;;;;5090419;28;20316;-67
2021/08/30 13:47:04;;;;;;;;;;;24.30;48.60;;;;;;5090248;28;19920;-67
2021/08/30 13:49:29;;;;;;;;;;;24.20;49.00;;;;;;5089462;28;19970;-67
2021/08/30 13:51:55;;;;;;;;;;;24.00;48.80;;;;;;5073957;28;19927;-68
2021/08/30 13:54:20;;;;;;;;;;;23.90;48.90;;;;;;5090448;28;19919;-67
2021/08/30 13:56:46;;;;;;;;;;;23.60;49.50;;;;;;5087867;28;19916;-67
2021/08/30 13:59:11;;;;;;;;;;;23.60;49.00;;;;;;5089782;28;19919;-67
2021/08/30 14:01:37;;;;;;;;;;;23.60;48.80;;;;;;5090404;28;19951;-66
2021/08/30 14:04:03;;;;;;;;;;;23.50;49.50;;;;;;5090202;28;20045;-67
2021/08/30 14:06:29;;;;;;;;;;;23.60;49.40;;;;;;5087201;28;20012;-67
2021/08/30 14:08:54;;;;;;;;;;;23.50;48.80;;;;;;5090058;28;20048;-67
2021/08/30 14:11:20;;;;;;;;;;;23.50;48.80;;;;;;5090097;28;20731;-67
2021/08/30 14:13:46;;;;;;;;;;;23.50;48.70;;;;;;5088541;28;20091;-67